Pagina principale
METAR-TAF:

METAR-TAF

Aeroporti :

Aeroporto di Craiova

Craiova, Romania

latitudine: 44-14N, longitudine: 023-52E, altezza: 192 m

Osservazione

Il bollettino è stato emesso 36 minuti fa, alle 01:30 UTC
Vento 9 kt da est
Temperature 21°C
Umidità 64%
Pressione 1019 hPa
Visibilità 10 km o più
nessuna nube inferiore a 1500 m e nessun cumulonembo

METAR: LRCV 210130Z 09009KT CAVOK 21/14 Q1019

Ora: 05:06 (02:06 UTC)

Previsione

Il bollettino è stato emesso 3 ore e 6 minuti fa, alle 23:00 UTC
Previsione valida dal 21 alle 00 UTC al 21 alle 09 UTC
Vento 12 kt da est
Visibilità 10 km o più
nessuna nube inferiore a 1500 m e nessun cumulonembo

TAF: LRCV 202300Z 2100/2109 09012KT CAVOK

Osservazioni e previsioni meteorologiche di più di 4000 aeroporti (messaggi METAR e TAF).

Le stazioni disponibili sono rappresentate dai dischi gialli e rossi sulla carta.

Puntare il mouse per vedere il nome della stazione.

Clicca sopra per visualizzare le osservazioni e previsioni meteorologiche.

Per cambiare la mappa : fare clic sui pulsanti verdi con una croce nera per ingrandire, il pulsante verde con un trattino per diminuire, o sulla freccia verde per le mappe adiacenti.


METAR-TAF: